sensor_id;sensor_type;location;lat;lon;timestamp;temperature;humidity
19206;DHT22;59358;52.134;5.596;2023-05-29T00:00:53;11.00;99.90
19206;DHT22;59358;52.134;5.596;2023-05-29T00:03:20;11.10;99.90
19206;DHT22;59358;52.134;5.596;2023-05-29T00:05:46;11.00;99.90
19206;DHT22;59358;52.134;5.596;2023-05-29T00:08:14;10.90;99.90
19206;DHT22;59358;52.134;5.596;2023-05-29T00:10:41;10.90;99.90
19206;DHT22;59358;52.134;5.596;2023-05-29T00:13:09;10.80;99.90
19206;DHT22;59358;52.134;5.596;2023-05-29T00:15:36;10.80;99.90
19206;DHT22;59358;52.134;5.596;2023-05-29T00:18:03;10.80;99.90
19206;DHT22;59358;52.134;5.596;2023-05-29T00:20:30;10.80;99.90
19206;DHT22;59358;52.134;5.596;2023-05-29T00:22:59;10.70;99.90
19206;DHT22;59358;52.134;5.596;2023-05-29T00:25:27;10.80;99.90
19206;DHT22;59358;52.134;5.596;2023-05-29T00:27:54;10.70;99.90
19206;DHT22;59358;52.134;5.596;2023-05-29T00:30:22;10.70;99.90
19206;DHT22;59358;52.134;5.596;2023-05-29T00:32:50;10.70;99.90
19206;DHT22;59358;52.134;5.596;2023-05-29T00:35:19;10.70;99.90
19206;DHT22;59358;52.134;5.596;2023-05-29T00:37:46;10.60;99.90
19206;DHT22;59358;52.134;5.596;2023-05-29T00:40:13;10.60;99.90
19206;DHT22;59358;52.134;5.596;2023-05-29T00:42:39;10.60;99.90
19206;DHT22;59358;52.134;5.596;2023-05-29T00:45:07;10.60;99.90
19206;DHT22;59358;52.134;5.596;2023-05-29T00:47:36;10.50;99.90
19206;DHT22;59358;52.134;5.596;2023-05-29T00:50:03;10.50;99.90
19206;DHT22;59358;52.134;5.596;2023-05-29T00:52:30;10.40;99.90
19206;DHT22;59358;52.134;5.596;2023-05-29T00:54:57;10.40;99.90
19206;DHT22;59358;52.134;5.596;2023-05-29T00:57:26;10.40;99.90
19206;DHT22;59358;52.134;5.596;2023-05-29T00:59:54;10.40;99.90
19206;DHT22;59358;52.134;5.596;2023-05-29T01:02:21;10.30;99.90
19206;DHT22;59358;52.134;5.596;2023-05-29T01:04:50;10.30;99.90
19206;DHT22;59358;52.134;5.596;2023-05-29T01:07:19;10.20;99.90
19206;DHT22;59358;52.134;5.596;2023-05-29T01:09:47;10.20;99.90
19206;DHT22;59358;52.134;5.596;2023-05-29T01:12:26;10.20;99.90
19206;DHT22;59358;52.134;5.596;2023-05-29T01:15:11;10.20;99.90
19206;DHT22;59358;52.134;5.596;2023-05-29T01:17:51;10.20;99.90
19206;DHT22;59358;52.134;5.596;2023-05-29T01:20:29;10.20;99.90
19206;DHT22;59358;52.134;5.596;2023-05-29T01:23:13;10.20;99.90
19206;DHT22;59358;52.134;5.596;2023-05-29T01:25:58;10.10;99.90
19206;DHT22;59358;52.134;5.596;2023-05-29T01:28:35;10.10;99.90
19206;DHT22;59358;52.134;5.596;2023-05-29T01:31:04;10.10;99.90
19206;DHT22;59358;52.134;5.596;2023-05-29T01:33:32;10.10;99.90
19206;DHT22;59358;52.134;5.596;2023-05-29T01:35:59;10.10;99.90
19206;DHT22;59358;52.134;5.596;2023-05-29T01:38:26;10.00;99.90
19206;DHT22;59358;52.134;5.596;2023-05-29T01:40:52;10.00;99.90
19206;DHT22;59358;52.134;5.596;2023-05-29T01:43:20;10.00;99.90
19206;DHT22;59358;52.134;5.596;2023-05-29T01:45:48;9.90;99.90
19206;DHT22;59358;52.134;5.596;2023-05-29T01:48:15;9.90;99.90
19206;DHT22;59358;52.134;5.596;2023-05-29T01:50:42;9.90;99.90
19206;DHT22;59358;52.134;5.596;2023-05-29T01:53:10;9.90;99.90
19206;DHT22;59358;52.134;5.596;2023-05-29T01:55:37;9.90;99.90
19206;DHT22;59358;52.134;5.596;2023-05-29T01:58:04;9.90;99.90
19206;DHT22;59358;52.134;5.596;2023-05-29T02:00:32;9.80;99.90
19206;DHT22;59358;52.134;5.596;2023-05-29T02:03:01;9.80;99.90
19206;DHT22;59358;52.134;5.596;2023-05-29T02:05:28;9.80;99.90
19206;DHT22;59358;52.134;5.596;2023-05-29T02:07:55;9.80;99.90
19206;DHT22;59358;52.134;5.596;2023-05-29T02:10:22;9.80;99.90
19206;DHT22;59358;52.134;5.596;2023-05-29T02:12:48;9.70;99.90
19206;DHT22;59358;52.134;5.596;2023-05-29T02:15:15;9.70;99.90
19206;DHT22;59358;52.134;5.596;2023-05-29T02:17:42;9.70;99.90
19206;DHT22;59358;52.134;5.596;2023-05-29T02:20:11;9.70;99.90
19206;DHT22;59358;52.134;5.596;2023-05-29T02:22:37;9.70;99.90
19206;DHT22;59358;52.134;5.596;2023-05-29T02:25:05;9.60;99.90
19206;DHT22;59358;52.134;5.596;2023-05-29T02:27:32;9.60;99.90
19206;DHT22;59358;52.134;5.596;2023-05-29T02:29:59;9.60;99.90
19206;DHT22;59358;52.134;5.596;2023-05-29T02:32:26;9.60;99.90
19206;DHT22;59358;52.134;5.596;2023-05-29T02:34:54;9.60;99.90
19206;DHT22;59358;52.134;5.596;2023-05-29T02:37:22;9.60;99.90
19206;DHT22;59358;52.134;5.596;2023-05-29T02:39:50;9.50;99.90
19206;DHT22;59358;52.134;5.596;2023-05-29T02:42:17;9.50;99.90
19206;DHT22;59358;52.134;5.596;2023-05-29T02:44:44;9.50;99.90
19206;DHT22;59358;52.134;5.596;2023-05-29T02:47:11;9.50;99.90
19206;DHT22;59358;52.134;5.596;2023-05-29T02:49:38;9.40;99.90
19206;DHT22;59358;52.134;5.596;2023-05-29T02:52:05;9.40;99.90
19206;DHT22;59358;52.134;5.596;2023-05-29T02:54:33;9.40;99.90
19206;DHT22;59358;52.134;5.596;2023-05-29T02:57:00;9.40;99.90
19206;DHT22;59358;52.134;5.596;2023-05-29T02:59:27;9.40;99.90
19206;DHT22;59358;52.134;5.596;2023-05-29T03:01:54;9.30;99.90
19206;DHT22;59358;52.134;5.596;2023-05-29T03:04:21;9.30;99.90
19206;DHT22;59358;52.134;5.596;2023-05-29T03:06:48;9.30;99.90
19206;DHT22;59358;52.134;5.596;2023-05-29T03:09:14;9.30;99.90
19206;DHT22;59358;52.134;5.596;2023-05-29T03:11:43;9.30;99.90
19206;DHT22;59358;52.134;5.596;2023-05-29T03:14:10;9.30;99.90
19206;DHT22;59358;52.134;5.596;2023-05-29T03:16:37;9.30;99.90
19206;DHT22;59358;52.134;5.596;2023-05-29T03:19:04;9.30;99.90
19206;DHT22;59358;52.134;5.596;2023-05-29T03:21:31;9.20;99.90
19206;DHT22;59358;52.134;5.596;2023-05-29T03:23:57;9.20;99.90
19206;DHT22;59358;52.134;5.596;2023-05-29T03:26:24;9.20;99.90
19206;DHT22;59358;52.134;5.596;2023-05-29T03:28:53;9.20;99.90
19206;DHT22;59358;52.134;5.596;2023-05-29T03:31:20;9.30;99.90
19206;DHT22;59358;52.134;5.596;2023-05-29T03:33:47;9.20;99.90
19206;DHT22;59358;52.134;5.596;2023-05-29T03:36:14;9.30;99.90
19206;DHT22;59358;52.134;5.596;2023-05-29T03:38:42;9.20;99.90
19206;DHT22;59358;52.134;5.596;2023-05-29T03:41:10;9.20;99.90
19206;DHT22;59358;52.134;5.596;2023-05-29T03:43:37;9.30;99.90
19206;DHT22;59358;52.134;5.596;2023-05-29T03:46:05;9.30;99.90
19206;DHT22;59358;52.134;5.596;2023-05-29T03:48:32;9.20;99.90
19206;DHT22;59358;52.134;5.596;2023-05-29T03:50:59;9.20;99.90
19206;DHT22;59358;52.134;5.596;2023-05-29T03:53:26;9.30;99.90
19206;DHT22;59358;52.134;5.596;2023-05-29T03:55:52;9.30;99.90
19206;DHT22;59358;52.134;5.596;2023-05-29T03:58:19;9.30;99.90
19206;DHT22;59358;52.134;5.596;2023-05-29T04:00:46;9.30;99.90
19206;DHT22;59358;52.134;5.596;2023-05-29T04:03:14;9.30;99.90
19206;DHT22;59358;52.134;5.596;2023-05-29T04:05:41;9.30;99.90
19206;DHT22;59358;52.134;5.596;2023-05-29T04:08:08;9.40;99.90
19206;DHT22;59358;52.134;5.596;2023-05-29T04:10:36;9.60;99.90
19206;DHT22;59358;52.134;5.596;2023-05-29T04:13:03;9.80;99.90
19206;DHT22;59358;52.134;5.596;2023-05-29T04:15:29;9.80;99.90
19206;DHT22;59358;52.134;5.596;2023-05-29T04:17:58;9.80;99.90
19206;DHT22;59358;52.134;5.596;2023-05-29T04:20:26;9.70;99.90
19206;DHT22;59358;52.134;5.596;2023-05-29T04:22:53;9.70;99.90
19206;DHT22;59358;52.134;5.596;2023-05-29T04:25:20;9.70;99.90
19206;DHT22;59358;52.134;5.596;2023-05-29T04:27:47;9.70;99.90
19206;DHT22;59358;52.134;5.596;2023-05-29T04:30:16;9.70;99.90
19206;DHT22;59358;52.134;5.596;2023-05-29T04:32:43;9.70;99.90
19206;DHT22;59358;52.134;5.596;2023-05-29T04:35:10;9.80;99.90
19206;DHT22;59358;52.134;5.596;2023-05-29T04:37:38;9.80;99.90
19206;DHT22;59358;52.134;5.596;2023-05-29T04:40:06;9.80;99.90
19206;DHT22;59358;52.134;5.596;2023-05-29T04:42:34;9.80;99.90
19206;DHT22;59358;52.134;5.596;2023-05-29T04:45:01;9.80;99.90
19206;DHT22;59358;52.134;5.596;2023-05-29T04:47:29;9.90;99.90
19206;DHT22;59358;52.134;5.596;2023-05-29T04:49:58;10.00;99.90
19206;DHT22;59358;52.134;5.596;2023-05-29T04:52:25;10.00;99.90
19206;DHT22;59358;52.134;5.596;2023-05-29T04:54:53;10.10;99.90
19206;DHT22;59358;52.134;5.596;2023-05-29T04:57:20;10.10;99.90
19206;DHT22;59358;52.134;5.596;2023-05-29T04:59:47;10.10;99.90
19206;DHT22;59358;52.134;5.596;2023-05-29T05:02:14;10.10;99.90
19206;DHT22;59358;52.134;5.596;2023-05-29T05:04:40;10.20;99.90
19206;DHT22;59358;52.134;5.596;2023-05-29T05:07:08;10.30;99.90
19206;DHT22;59358;52.134;5.596;2023-05-29T05:09:35;10.30;99.90
19206;DHT22;59358;52.134;5.596;2023-05-29T05:12:04;10.40;99.90
19206;DHT22;59358;52.134;5.596;2023-05-29T05:14:31;10.40;99.90
19206;DHT22;59358;52.134;5.596;2023-05-29T05:16:58;10.50;99.90
19206;DHT22;59358;52.134;5.596;2023-05-29T05:19:24;10.60;99.90
19206;DHT22;59358;52.134;5.596;2023-05-29T05:21:51;10.70;99.90
19206;DHT22;59358;52.134;5.596;2023-05-29T05:24:18;10.70;99.90
19206;DHT22;59358;52.134;5.596;2023-05-29T05:26:45;10.70;99.90
19206;DHT22;59358;52.134;5.596;2023-05-29T05:29:13;10.70;99.90
19206;DHT22;59358;52.134;5.596;2023-05-29T05:31:40;10.70;99.90
19206;DHT22;59358;52.134;5.596;2023-05-29T05:34:07;10.80;99.90
19206;DHT22;59358;52.134;5.596;2023-05-29T05:36:34;10.90;99.90
19206;DHT22;59358;52.134;5.596;2023-05-29T05:39:02;11.00;99.90
19206;DHT22;59358;52.134;5.596;2023-05-29T05:41:28;11.00;99.90
19206;DHT22;59358;52.134;5.596;2023-05-29T05:43:55;11.00;99.90
19206;DHT22;59358;52.134;5.596;2023-05-29T05:46:23;11.10;99.90
19206;DHT22;59358;52.134;5.596;2023-05-29T05:48:50;11.20;99.90
19206;DHT22;59358;52.134;5.596;2023-05-29T05:51:17;11.30;99.90
19206;DHT22;59358;52.134;5.596;2023-05-29T05:53:44;11.40;99.90
19206;DHT22;59358;52.134;5.596;2023-05-29T05:56:12;11.40;99.90
19206;DHT22;59358;52.134;5.596;2023-05-29T05:58:39;11.50;99.90
19206;DHT22;59358;52.134;5.596;2023-05-29T06:01:07;11.70;99.90
19206;DHT22;59358;52.134;5.596;2023-05-29T06:03:35;11.80;99.90
19206;DHT22;59358;52.134;5.596;2023-05-29T06:06:03;11.70;99.90
19206;DHT22;59358;52.134;5.596;2023-05-29T06:08:30;11.60;99.90
19206;DHT22;59358;52.134;5.596;2023-05-29T06:10:57;11.80;99.90
19206;DHT22;59358;52.134;5.596;2023-05-29T06:13:23;11.90;99.90
19206;DHT22;59358;52.134;5.596;2023-05-29T06:15:50;12.10;99.90
19206;DHT22;59358;52.134;5.596;2023-05-29T06:18:17;12.30;99.90
19206;DHT22;59358;52.134;5.596;2023-05-29T06:20:45;12.30;99.90
19206;DHT22;59358;52.134;5.596;2023-05-29T06:23:12;12.20;99.90
19206;DHT22;59358;52.134;5.596;2023-05-29T06:25:38;12.30;99.90
19206;DHT22;59358;52.134;5.596;2023-05-29T06:28:06;12.30;99.90
19206;DHT22;59358;52.134;5.596;2023-05-29T06:30:33;12.30;99.90
19206;DHT22;59358;52.134;5.596;2023-05-29T06:33:01;12.30;99.90
19206;DHT22;59358;52.134;5.596;2023-05-29T06:35:27;12.50;99.90
19206;DHT22;59358;52.134;5.596;2023-05-29T06:37:56;12.50;99.90
19206;DHT22;59358;52.134;5.596;2023-05-29T06:40:23;12.60;99.90
19206;DHT22;59358;52.134;5.596;2023-05-29T06:42:49;12.60;99.90
19206;DHT22;59358;52.134;5.596;2023-05-29T06:45:16;12.80;99.90
19206;DHT22;59358;52.134;5.596;2023-05-29T06:47:43;12.90;99.90
19206;DHT22;59358;52.134;5.596;2023-05-29T06:50:10;13.00;99.90
19206;DHT22;59358;52.134;5.596;2023-05-29T06:52:37;13.00;99.90
19206;DHT22;59358;52.134;5.596;2023-05-29T06:55:06;12.90;99.90
19206;DHT22;59358;52.134;5.596;2023-05-29T06:57:33;13.00;99.90
19206;DHT22;59358;52.134;5.596;2023-05-29T07:00:00;13.20;99.90
19206;DHT22;59358;52.134;5.596;2023-05-29T07:02:29;13.20;99.90
19206;DHT22;59358;52.134;5.596;2023-05-29T07:04:56;13.20;99.90
19206;DHT22;59358;52.134;5.596;2023-05-29T07:07:22;13.30;99.90
19206;DHT22;59358;52.134;5.596;2023-05-29T07:09:49;13.40;99.90
19206;DHT22;59358;52.134;5.596;2023-05-29T07:12:17;13.60;99.90
19206;DHT22;59358;52.134;5.596;2023-05-29T07:14:44;13.70;99.90
19206;DHT22;59358;52.134;5.596;2023-05-29T07:17:13;13.70;99.90
19206;DHT22;59358;52.134;5.596;2023-05-29T07:19:40;13.90;99.90
19206;DHT22;59358;52.134;5.596;2023-05-29T07:22:07;14.00;99.90
19206;DHT22;59358;52.134;5.596;2023-05-29T07:24:34;14.10;99.90
19206;DHT22;59358;52.134;5.596;2023-05-29T07:27:01;14.00;99.90
19206;DHT22;59358;52.134;5.596;2023-05-29T07:29:29;14.10;99.90
19206;DHT22;59358;52.134;5.596;2023-05-29T07:31:56;14.20;99.90
19206;DHT22;59358;52.134;5.596;2023-05-29T07:34:23;14.20;99.90
19206;DHT22;59358;52.134;5.596;2023-05-29T07:37:00;14.10;99.90
19206;DHT22;59358;52.134;5.596;2023-05-29T07:39:28;14.10;99.90
19206;DHT22;59358;52.134;5.596;2023-05-29T07:41:55;14.20;99.90
19206;DHT22;59358;52.134;5.596;2023-05-29T07:44:21;14.40;99.90
19206;DHT22;59358;52.134;5.596;2023-05-29T07:46:49;14.60;99.90
19206;DHT22;59358;52.134;5.596;2023-05-29T07:49:16;14.70;99.90
19206;DHT22;59358;52.134;5.596;2023-05-29T07:51:43;14.80;99.90
19206;DHT22;59358;52.134;5.596;2023-05-29T07:54:10;15.10;99.90
19206;DHT22;59358;52.134;5.596;2023-05-29T07:56:37;15.30;99.90
19206;DHT22;59358;52.134;5.596;2023-05-29T07:59:06;15.20;99.90
19206;DHT22;59358;52.134;5.596;2023-05-29T08:01:34;15.30;99.90
19206;DHT22;59358;52.134;5.596;2023-05-29T08:04:03;15.20;99.90
19206;DHT22;59358;52.134;5.596;2023-05-29T08:06:30;15.40;99.90
19206;DHT22;59358;52.134;5.596;2023-05-29T08:08:58;15.50;99.90
19206;DHT22;59358;52.134;5.596;2023-05-29T08:11:24;15.70;99.90
19206;DHT22;59358;52.134;5.596;2023-05-29T08:13:51;15.70;99.90
19206;DHT22;59358;52.134;5.596;2023-05-29T08:16:18;15.70;99.90
19206;DHT22;59358;52.134;5.596;2023-05-29T08:18:45;15.70;99.90
19206;DHT22;59358;52.134;5.596;2023-05-29T08:21:13;15.70;99.90
19206;DHT22;59358;52.134;5.596;2023-05-29T08:23:40;15.60;99.90
19206;DHT22;59358;52.134;5.596;2023-05-29T08:26:07;15.50;99.90
19206;DHT22;59358;52.134;5.596;2023-05-29T08:28:33;15.60;99.90
19206;DHT22;59358;52.134;5.596;2023-05-29T08:31:00;15.70;99.90
19206;DHT22;59358;52.134;5.596;2023-05-29T08:33:27;15.80;99.90
19206;DHT22;59358;52.134;5.596;2023-05-29T08:35:56;15.80;99.90
19206;DHT22;59358;52.134;5.596;2023-05-29T08:38:24;15.80;99.90
19206;DHT22;59358;52.134;5.596;2023-05-29T08:40:52;16.00;99.90
19206;DHT22;59358;52.134;5.596;2023-05-29T08:43:21;16.00;99.90
19206;DHT22;59358;52.134;5.596;2023-05-29T08:45:52;16.20;99.90
19206;DHT22;59358;52.134;5.596;2023-05-29T08:48:19;16.30;99.90
19206;DHT22;59358;52.134;5.596;2023-05-29T08:50:49;16.60;99.90
19206;DHT22;59358;52.134;5.596;2023-05-29T08:53:18;16.90;99.90
19206;DHT22;59358;52.134;5.596;2023-05-29T08:55:48;17.10;99.90
19206;DHT22;59358;52.134;5.596;2023-05-29T08:58:17;17.10;99.80
19206;DHT22;59358;52.134;5.596;2023-05-29T09:00:45;17.00;99.70
19206;DHT22;59358;52.134;5.596;2023-05-29T09:03:12;16.80;99.30
19206;DHT22;59358;52.134;5.596;2023-05-29T09:05:40;16.60;99.50
19206;DHT22;59358;52.134;5.596;2023-05-29T09:08:07;16.60;99.60
19206;DHT22;59358;52.134;5.596;2023-05-29T09:10:35;16.80;99.90
19206;DHT22;59358;52.134;5.596;2023-05-29T09:13:03;16.90;99.80
19206;DHT22;59358;52.134;5.596;2023-05-29T09:15:31;17.00;99.10
19206;DHT22;59358;52.134;5.596;2023-05-29T09:17:58;16.80;99.30
19206;DHT22;59358;52.134;5.596;2023-05-29T09:20:25;16.80;99.40
19206;DHT22;59358;52.134;5.596;2023-05-29T09:22:54;17.00;99.20
19206;DHT22;59358;52.134;5.596;2023-05-29T09:25:22;17.00;99.40
19206;DHT22;59358;52.134;5.596;2023-05-29T09:27:51;17.10;98.40
19206;DHT22;59358;52.134;5.596;2023-05-29T09:30:34;16.90;98.10
19206;DHT22;59358;52.134;5.596;2023-05-29T09:33:01;17.10;98.60
19206;DHT22;59358;52.134;5.596;2023-05-29T09:35:32;17.30;98.70
19206;DHT22;59358;52.134;5.596;2023-05-29T09:38:00;17.40;98.60
19206;DHT22;59358;52.134;5.596;2023-05-29T09:40:28;17.60;98.10
19206;DHT22;59358;52.134;5.596;2023-05-29T09:42:55;17.40;98.20
19206;DHT22;59358;52.134;5.596;2023-05-29T09:45:23;17.40;98.10
19206;DHT22;59358;52.134;5.596;2023-05-29T09:47:52;17.40;97.40
19206;DHT22;59358;52.134;5.596;2023-05-29T09:50:19;17.40;96.80
19206;DHT22;59358;52.134;5.596;2023-05-29T09:52:47;17.40;97.50
19206;DHT22;59358;52.134;5.596;2023-05-29T09:55:18;17.50;97.50
19206;DHT22;59358;52.134;5.596;2023-05-29T09:57:47;17.90;96.70
19206;DHT22;59358;52.134;5.596;2023-05-29T10:00:15;18.10;95.80
19206;DHT22;59358;52.134;5.596;2023-05-29T10:02:44;17.90;96.20
19206;DHT22;59358;52.134;5.596;2023-05-29T10:05:12;18.10;96.20
19206;DHT22;59358;52.134;5.596;2023-05-29T10:07:43;18.40;95.80
19206;DHT22;59358;52.134;5.596;2023-05-29T10:10:12;18.50;95.90
19206;DHT22;59358;52.134;5.596;2023-05-29T10:12:44;18.30;96.30
19206;DHT22;59358;52.134;5.596;2023-05-29T10:15:12;18.40;95.70
19206;DHT22;59358;52.134;5.596;2023-05-29T10:17:43;18.30;96.00
19206;DHT22;59358;52.134;5.596;2023-05-29T10:20:14;18.20;96.00
19206;DHT22;59358;52.134;5.596;2023-05-29T10:22:45;18.00;96.40
19206;DHT22;59358;52.134;5.596;2023-05-29T10:25:13;17.90;96.70
19206;DHT22;59358;52.134;5.596;2023-05-29T10:27:41;17.90;97.00
19206;DHT22;59358;52.134;5.596;2023-05-29T10:30:13;18.20;97.10
19206;DHT22;59358;52.134;5.596;2023-05-29T10:32:56;18.50;96.40
19206;DHT22;59358;52.134;5.596;2023-05-29T10:35:31;18.50;96.00
19206;DHT22;59358;52.134;5.596;2023-05-29T10:38:09;18.40;96.00
19206;DHT22;59358;52.134;5.596;2023-05-29T10:40:37;18.40;96.10
19206;DHT22;59358;52.134;5.596;2023-05-29T10:43:04;18.40;95.60
19206;DHT22;59358;52.134;5.596;2023-05-29T10:45:48;18.40;96.20
19206;DHT22;59358;52.134;5.596;2023-05-29T10:48:35;18.70;95.70
19206;DHT22;59358;52.134;5.596;2023-05-29T10:51:05;18.80;96.00
19206;DHT22;59358;52.134;5.596;2023-05-29T10:53:32;19.10;95.50
19206;DHT22;59358;52.134;5.596;2023-05-29T10:56:00;19.20;95.10
19206;DHT22;59358;52.134;5.596;2023-05-29T10:58:30;19.60;94.90
19206;DHT22;59358;52.134;5.596;2023-05-29T11:00:57;19.60;94.50
19206;DHT22;59358;52.134;5.596;2023-05-29T11:03:25;19.70;94.30
19206;DHT22;59358;52.134;5.596;2023-05-29T11:05:56;19.50;94.70
19206;DHT22;59358;52.134;5.596;2023-05-29T11:08:32;19.50;94.60
19206;DHT22;59358;52.134;5.596;2023-05-29T11:10:59;19.50;94.60
19206;DHT22;59358;52.134;5.596;2023-05-29T11:13:30;19.50;94.70
19206;DHT22;59358;52.134;5.596;2023-05-29T11:16:20;19.70;94.20
19206;DHT22;59358;52.134;5.596;2023-05-29T11:19:04;19.70;93.20
19206;DHT22;59358;52.134;5.596;2023-05-29T11:21:34;19.70;93.30
19206;DHT22;59358;52.134;5.596;2023-05-29T11:24:14;19.70;92.20
19206;DHT22;59358;52.134;5.596;2023-05-29T11:26:45;19.60;92.60
19206;DHT22;59358;52.134;5.596;2023-05-29T11:29:12;19.40;93.20
19206;DHT22;59358;52.134;5.596;2023-05-29T11:31:40;19.60;93.10
19206;DHT22;59358;52.134;5.596;2023-05-29T11:34:09;19.60;93.80
19206;DHT22;59358;52.134;5.596;2023-05-29T11:36:40;19.90;93.00
19206;DHT22;59358;52.134;5.596;2023-05-29T11:39:10;20.00;92.90
19206;DHT22;59358;52.134;5.596;2023-05-29T11:41:37;20.20;92.90
19206;DHT22;59358;52.134;5.596;2023-05-29T11:44:04;20.30;92.40
19206;DHT22;59358;52.134;5.596;2023-05-29T11:46:32;20.10;92.30
19206;DHT22;59358;52.134;5.596;2023-05-29T11:49:00;20.40;92.90
19206;DHT22;59358;52.134;5.596;2023-05-29T11:51:27;20.50;92.30
19206;DHT22;59358;52.134;5.596;2023-05-29T11:53:54;20.60;91.10
19206;DHT22;59358;52.134;5.596;2023-05-29T11:56:26;20.50;91.60
19206;DHT22;59358;52.134;5.596;2023-05-29T11:58:54;20.30;91.60
19206;DHT22;59358;52.134;5.596;2023-05-29T12:01:22;20.40;91.50
19206;DHT22;59358;52.134;5.596;2023-05-29T12:03:51;20.30;91.60
19206;DHT22;59358;52.134;5.596;2023-05-29T12:06:31;20.30;91.90
19206;DHT22;59358;52.134;5.596;2023-05-29T12:08:59;20.70;91.20
19206;DHT22;59358;52.134;5.596;2023-05-29T12:11:28;20.70;91.30
19206;DHT22;59358;52.134;5.596;2023-05-29T12:13:56;20.60;91.60
19206;DHT22;59358;52.134;5.596;2023-05-29T12:16:23;20.60;91.60
19206;DHT22;59358;52.134;5.596;2023-05-29T12:18:51;20.40;92.50
19206;DHT22;59358;52.134;5.596;2023-05-29T12:21:20;20.20;92.20
19206;DHT22;59358;52.134;5.596;2023-05-29T12:23:47;20.30;92.90
19206;DHT22;59358;52.134;5.596;2023-05-29T12:26:14;20.40;91.90
19206;DHT22;59358;52.134;5.596;2023-05-29T12:28:44;20.30;92.70
19206;DHT22;59358;52.134;5.596;2023-05-29T12:31:10;20.30;92.30
19206;DHT22;59358;52.134;5.596;2023-05-29T12:33:42;20.30;92.20
19206;DHT22;59358;52.134;5.596;2023-05-29T12:36:11;20.00;92.50
19206;DHT22;59358;52.134;5.596;2023-05-29T12:38:47;19.60;92.50
19206;DHT22;59358;52.134;5.596;2023-05-29T12:41:25;19.60;93.00
19206;DHT22;59358;52.134;5.596;2023-05-29T12:43:54;19.80;93.10
19206;DHT22;59358;52.134;5.596;2023-05-29T12:46:22;20.20;92.20
19206;DHT22;59358;52.134;5.596;2023-05-29T12:48:49;20.10;91.80
19206;DHT22;59358;52.134;5.596;2023-05-29T12:51:22;19.90;91.90
19206;DHT22;59358;52.134;5.596;2023-05-29T12:53:48;19.80;92.20
19206;DHT22;59358;52.134;5.596;2023-05-29T12:56:15;20.10;92.10
19206;DHT22;59358;52.134;5.596;2023-05-29T12:58:42;20.20;92.20
19206;DHT22;59358;52.134;5.596;2023-05-29T13:01:13;20.30;91.80
19206;DHT22;59358;52.134;5.596;2023-05-29T13:03:41;20.40;91.60
19206;DHT22;59358;52.134;5.596;2023-05-29T13:06:08;20.20;91.70
19206;DHT22;59358;52.134;5.596;2023-05-29T13:08:34;20.30;92.10
19206;DHT22;59358;52.134;5.596;2023-05-29T13:11:01;20.30;92.70
19206;DHT22;59358;52.134;5.596;2023-05-29T13:13:28;20.40;91.60
19206;DHT22;59358;52.134;5.596;2023-05-29T13:15:55;20.60;92.50
19206;DHT22;59358;52.134;5.596;2023-05-29T13:18:23;20.80;91.60
19206;DHT22;59358;52.134;5.596;2023-05-29T13:20:50;20.50;91.90
19206;DHT22;59358;52.134;5.596;2023-05-29T13:23:17;20.50;92.20
19206;DHT22;59358;52.134;5.596;2023-05-29T13:25:43;20.50;92.30
19206;DHT22;59358;52.134;5.596;2023-05-29T13:28:11;20.50;92.30
19206;DHT22;59358;52.134;5.596;2023-05-29T13:30:37;20.60;91.80
19206;DHT22;59358;52.134;5.596;2023-05-29T13:33:04;20.80;91.60
19206;DHT22;59358;52.134;5.596;2023-05-29T13:35:32;20.80;91.20
19206;DHT22;59358;52.134;5.596;2023-05-29T13:37:59;20.80;91.50
19206;DHT22;59358;52.134;5.596;2023-05-29T13:40:26;20.70;91.30
19206;DHT22;59358;52.134;5.596;2023-05-29T13:42:53;20.80;91.20
19206;DHT22;59358;52.134;5.596;2023-05-29T13:45:21;20.90;91.80
19206;DHT22;59358;52.134;5.596;2023-05-29T13:47:47;21.30;91.80
19206;DHT22;59358;52.134;5.596;2023-05-29T13:50:14;21.30;90.60
19206;DHT22;59358;52.134;5.596;2023-05-29T13:52:42;21.20;90.50
19206;DHT22;59358;52.134;5.596;2023-05-29T13:55:09;21.20;90.60
19206;DHT22;59358;52.134;5.596;2023-05-29T13:57:36;21.20;90.40
19206;DHT22;59358;52.134;5.596;2023-05-29T14:00:03;21.40;90.00
19206;DHT22;59358;52.134;5.596;2023-05-29T14:02:31;21.60;90.40
19206;DHT22;59358;52.134;5.596;2023-05-29T14:04:57;21.60;90.20
19206;DHT22;59358;52.134;5.596;2023-05-29T14:07:24;21.80;90.10
19206;DHT22;59358;52.134;5.596;2023-05-29T14:09:52;21.90;90.30
19206;DHT22;59358;52.134;5.596;2023-05-29T14:12:19;21.90;90.10
19206;DHT22;59358;52.134;5.596;2023-05-29T14:14:46;22.10;90.10
19206;DHT22;59358;52.134;5.596;2023-05-29T14:17:13;22.40;88.20
19206;DHT22;59358;52.134;5.596;2023-05-29T14:19:40;22.10;89.70
19206;DHT22;59358;52.134;5.596;2023-05-29T14:22:07;22.20;88.80
19206;DHT22;59358;52.134;5.596;2023-05-29T14:24:34;22.30;88.70
19206;DHT22;59358;52.134;5.596;2023-05-29T14:27:03;22.40;87.60
19206;DHT22;59358;52.134;5.596;2023-05-29T14:29:31;22.40;87.50
19206;DHT22;59358;52.134;5.596;2023-05-29T14:31:57;22.30;87.90
19206;DHT22;59358;52.134;5.596;2023-05-29T14:34:24;22.20;87.50
19206;DHT22;59358;52.134;5.596;2023-05-29T14:36:51;22.10;87.90
19206;DHT22;59358;52.134;5.596;2023-05-29T14:39:18;22.30;85.90
19206;DHT22;59358;52.134;5.596;2023-05-29T14:41:44;22.20;86.20
19206;DHT22;59358;52.134;5.596;2023-05-29T14:44:13;22.10;87.40
19206;DHT22;59358;52.134;5.596;2023-05-29T14:46:40;22.40;86.80
19206;DHT22;59358;52.134;5.596;2023-05-29T14:49:07;22.60;85.00
19206;DHT22;59358;52.134;5.596;2023-05-29T14:51:33;22.70;86.40
19206;DHT22;59358;52.134;5.596;2023-05-29T14:54:01;23.20;86.70
19206;DHT22;59358;52.134;5.596;2023-05-29T14:56:28;23.50;83.30
19206;DHT22;59358;52.134;5.596;2023-05-29T14:58:54;23.10;84.10
19206;DHT22;59358;52.134;5.596;2023-05-29T15:01:22;23.30;84.90
19206;DHT22;59358;52.134;5.596;2023-05-29T15:03:49;23.40;82.60
19206;DHT22;59358;52.134;5.596;2023-05-29T15:06:16;23.70;83.40
19206;DHT22;59358;52.134;5.596;2023-05-29T15:08:43;23.90;82.10
19206;DHT22;59358;52.134;5.596;2023-05-29T15:11:10;24.20;83.10
19206;DHT22;59358;52.134;5.596;2023-05-29T15:13:38;24.10;80.70
19206;DHT22;59358;52.134;5.596;2023-05-29T15:16:05;24.20;82.80
19206;DHT22;59358;52.134;5.596;2023-05-29T15:18:34;24.60;81.60
19206;DHT22;59358;52.134;5.596;2023-05-29T15:21:01;24.70;81.40
19206;DHT22;59358;52.134;5.596;2023-05-29T15:23:28;24.70;81.30
19206;DHT22;59358;52.134;5.596;2023-05-29T15:25:55;25.10;80.30
19206;DHT22;59358;52.134;5.596;2023-05-29T15:28:22;25.30;79.50
19206;DHT22;59358;52.134;5.596;2023-05-29T15:30:49;25.30;80.10
19206;DHT22;59358;52.134;5.596;2023-05-29T15:33:16;25.70;79.70
19206;DHT22;59358;52.134;5.596;2023-05-29T15:35:44;25.30;78.90
19206;DHT22;59358;52.134;5.596;2023-05-29T15:38:11;24.90;79.60
19206;DHT22;59358;52.134;5.596;2023-05-29T15:40:38;25.10;78.70